Station Historical Data
Daily Summary for January 14, 2018 Units:  Metric    English   Both
« Previous Day
Next Day »
Daily Weekly Monthly Yearly Custom
  High: Low: Average:
Temperature: 1.3 °C -2.0 °C 0.1 °C
Dew Point: -1.9 °C -4.2 °C -2.8 °C
Humidity: 86 % 73 % 81 %
Wind Speed: 23.0 km/h 0.0 km/h 4.9 km/h
Wind Gust: 18.0 km/h - -
Wind:- - WSW
Pressure: 1027.0 hPa -3386.0 hPa -
Precipitation: 0.0 mm    
Historical Graphs
 
 
Tabular Data for January 14, 2018
Time Temperature Dew Point Pressure Wind Wind Speed Wind Gust Humidity Rainfall Rate (Hourly) solar Conditions
00:06 0.1 °C -2.6 °C 1027.0 hPa WSW 6.9 km/h 6.9 km/h 82 % 0.0 mm meteobridge W/m2
00:12 -0.1 °C -2.8 °C 1027.0 hPa WSW 4.7 km/h 4.7 km/h 82 % 0.0 mm meteobridge W/m2
00:18 0.1 °C -2.6 °C 1027.0 hPa WSW 3.5 km/h 4.7 km/h 82 % 0.0 mm meteobridge W/m2
00:24 0.1 °C -2.6 °C 1027.0 hPa WSW 3.2 km/h 4.3 km/h 82 % 0.0 mm meteobridge W/m2
00:30 0.0 °C -2.7 °C 1027.0 hPa Calm   4.3 km/h 82 % 0.0 mm meteobridge W/m2
00:49 0.2 °C -2.3 °C 1027.0 hPa WSW 5.0 km/h 5.0 km/h 83 % 0.0 mm meteobridge W/m2
00:56 0.1 °C -2.4 °C 1027.0 hPa WSW 6.1 km/h 9.0 km/h 83 % 0.0 mm meteobridge W/m2
01:02 0.2 °C -2.3 °C 1027.0 hPa WSW 7.6 km/h 9.3 km/h 83 % 0.0 mm meteobridge W/m2
01:09 0.2 °C -2.3 °C -3386.0 hPa WSW 5.0 km/h 10.1 km/h 83 % 0.0 mm meteobridge W/m2
01:16 0.2 °C -2.3 °C 1027.0 hPa WSW 4.7 km/h 11.6 km/h 83 % 0.0 mm meteobridge W/m2
01:22 0.2 °C -2.3 °C 1027.0 hPa West 5.5 km/h 5.5 km/h 83 % 0.0 mm meteobridge W/m2
01:28 0.3 °C -2.4 °C 1027.0 hPa WSW 5.8 km/h 5.8 km/h 82 % 0.0 mm meteobridge W/m2
01:34 0.2 °C -2.3 °C 1027.0 hPa WSW 5.0 km/h 6.4 km/h 83 % 0.0 mm meteobridge W/m2
01:47 0.1 °C -2.4 °C 1027.0 hPa WSW 7.6 km/h 7.6 km/h 83 % 0.0 mm meteobridge W/m2
01:54 0.1 °C -2.4 °C 1027.0 hPa SW 5.5 km/h 9.7 km/h 83 % 0.0 mm meteobridge W/m2
02:00 0.0 °C -2.5 °C 1027.0 hPa WSW 4.0 km/h 6.1 km/h 83 % 0.0 mm meteobridge W/m2
02:05 -0.1 °C -2.6 °C 1027.0 hPa SW 5.0 km/h 5.0 km/h 83 % 0.0 mm meteobridge W/m2
02:12 -0.1 °C -2.6 °C 1027.0 hPa WSW 2.6 km/h 2.6 km/h 83 % 0.0 mm meteobridge W/m2
02:18 -0.1 °C -2.6 °C 1027.0 hPa West 5.8 km/h 5.8 km/h 83 % 0.0 mm meteobridge W/m2
02:24 -0.1 °C -2.6 °C 1027.0 hPa Calm   4.3 km/h 83 % 0.0 mm meteobridge W/m2
02:30 -0.2 °C -2.7 °C 1027.0 hPa Calm     83 % 0.0 mm meteobridge W/m2
02:37 -0.2 °C -2.7 °C 1027.0 hPa Calm     83 % 0.0 mm meteobridge W/m2
02:43 -0.2 °C -2.6 °C 1027.0 hPa West 3.2 km/h 6.4 km/h 84 % 0.0 mm meteobridge W/m2
02:49 -0.2 °C -2.6 °C 1027.0 hPa SSW 5.8 km/h 6.9 km/h 84 % 0.0 mm meteobridge W/m2
03:02 -0.2 °C -2.6 °C 1027.0 hPa WSW 5.5 km/h 6.1 km/h 84 % 0.0 mm meteobridge W/m2
03:10 -0.1 °C -2.5 °C 1026.0 hPa WSW 6.4 km/h 6.4 km/h 84 % 0.0 mm meteobridge W/m2
03:18 -0.1 °C -2.5 °C 1026.0 hPa Calm     84 % 0.0 mm meteobridge W/m2
03:24 -0.1 °C -2.5 °C 1026.0 hPa WNW 6.9 km/h 6.9 km/h 84 % 0.0 mm meteobridge W/m2
03:30 -0.2 °C -2.6 °C 1026.0 hPa West 2.6 km/h 2.6 km/h 84 % 0.0 mm meteobridge W/m2
03:43 -0.2 °C -2.6 °C 1026.0 hPa WSW 4.3 km/h 4.3 km/h 84 % 0.0 mm meteobridge W/m2
03:49 -0.3 °C -2.8 °C 1026.0 hPa WSW 2.6 km/h 2.6 km/h 83 % 0.0 mm meteobridge W/m2
03:55 -0.3 °C -2.8 °C 1026.0 hPa Calm   5.8 km/h 83 % 0.0 mm meteobridge W/m2
04:01 -0.4 °C -2.9 °C 1026.0 hPa WSW 3.2 km/h 5.5 km/h 83 % 0.0 mm meteobridge W/m2
04:07 -0.3 °C -2.8 °C 1026.0 hPa Calm   7.9 km/h 83 % 0.0 mm meteobridge W/m2
04:13 -0.3 °C -2.8 °C 1026.0 hPa West 7.6 km/h 7.6 km/h 83 % 0.0 mm meteobridge W/m2
04:19 -0.4 °C -2.9 °C 1026.0 hPa WSW 9.0 km/h 9.0 km/h 83 % 0.0 mm meteobridge W/m2
04:26 -0.4 °C -2.9 °C 1026.0 hPa WSW 9.0 km/h 10.1 km/h 83 % 0.0 mm meteobridge W/m2
04:32 -0.4 °C -2.9 °C 1026.0 hPa WSW 9.7 km/h 9.7 km/h 83 % 0.0 mm meteobridge W/m2
04:39 -0.4 °C -2.9 °C 1026.0 hPa West 9.7 km/h 10.5 km/h 83 % 0.0 mm meteobridge W/m2
04:45 -0.4 °C -2.9 °C 1026.0 hPa WSW 3.2 km/h 9.0 km/h 83 % 0.0 mm meteobridge W/m2
04:51 -0.5 °C -3.0 °C 1026.0 hPa WSW 2.1 km/h 10.1 km/h 83 % 0.0 mm meteobridge W/m2
04:58 -0.4 °C -2.9 °C 1026.0 hPa WSW 1.8 km/h 5.5 km/h 83 % 0.0 mm meteobridge W/m2
05:04 -0.3 °C -2.8 °C 1026.0 hPa West 10.1 km/h 10.1 km/h 83 % 0.0 mm meteobridge W/m2
05:11 -0.4 °C -2.9 °C 1026.0 hPa WSW 2.6 km/h 10.1 km/h 83 % 0.0 mm meteobridge W/m2
05:17 -0.4 °C -2.9 °C 1026.0 hPa WNW 1.8 km/h 1.8 km/h 83 % 0.0 mm meteobridge W/m2
05:24 -0.5 °C -3.0 °C 1026.0 hPa SW 4.0 km/h 14.3 km/h 83 % 0.0 mm meteobridge W/m2
05:30 -0.5 °C -3.0 °C 1026.0 hPa WSW 6.9 km/h 6.9 km/h 83 % 0.0 mm meteobridge W/m2
05:37 -0.6 °C -3.1 °C 1026.0 hPa WSW 3.2 km/h 6.1 km/h 83 % 0.0 mm meteobridge W/m2
05:43 -0.6 °C -3.1 °C 1026.0 hPa West 4.3 km/h 4.3 km/h 83 % 0.0 mm meteobridge W/m2
05:50 -0.7 °C -3.2 °C 1026.0 hPa WSW 5.8 km/h 6.1 km/h 83 % 0.0 mm meteobridge W/m2
05:56 -0.6 °C -3.1 °C 1026.0 hPa WSW 6.9 km/h 8.7 km/h 83 % 0.0 mm meteobridge W/m2
06:02 -0.7 °C -3.2 °C 1026.0 hPa WSW 8.7 km/h 8.7 km/h 83 % 0.0 mm meteobridge W/m2
06:08 -0.7 °C -3.2 °C 1026.0 hPa SSW 3.2 km/h 9.0 km/h 83 % 0.0 mm meteobridge W/m2
06:21 -0.9 °C -3.4 °C 1026.0 hPa WNW 4.7 km/h 4.7 km/h 83 % 0.0 mm meteobridge W/m2
06:33 -1.0 °C -3.5 °C 1026.0 hPa West 4.3 km/h 5.8 km/h 83 % 0.0 mm meteobridge W/m2
06:39 -0.9 °C -3.4 °C 1026.0 hPa West 6.1 km/h 6.1 km/h 83 % 0.0 mm meteobridge W/m2
06:51 -1.0 °C -3.5 °C 1026.0 hPa WSW 4.3 km/h 7.9 km/h 83 % 0.0 mm meteobridge W/m2
06:58 -1.2 °C -3.7 °C 1026.0 hPa West 11.9 km/h 11.9 km/h 83 % 0.0 mm meteobridge W/m2
07:11 -1.4 °C -3.9 °C 1027.0 hPa West 5.5 km/h 5.5 km/h 83 % 0.0 mm meteobridge W/m2
07:17 -1.5 °C -3.8 °C 1027.0 hPa WNW 1.8 km/h 1.8 km/h 84 % 0.0 mm meteobridge W/m2
07:30 -1.4 °C -3.8 °C 1027.0 hPa West 4.3 km/h 4.3 km/h 84 % 0.0 mm meteobridge W/m2
07:37 -1.4 °C -3.8 °C 1026.0 hPa West 1.4 km/h 4.3 km/h 84 % 0.0 mm meteobridge W/m2
07:43 -1.5 °C -3.8 °C 1026.0 hPa WSW 6.4 km/h 6.4 km/h 84 % 0.0 mm meteobridge W/m2
07:49 -1.5 °C -3.8 °C 1027.0 hPa WSW 4.7 km/h 5.0 km/h 84 % 0.0 mm meteobridge W/m2
07:56 -1.4 °C -3.6 °C 1027.0 hPa WSW 5.8 km/h 5.8 km/h 85 % 0.0 mm meteobridge W/m2
08:03 -1.5 °C -3.7 °C 1027.0 hPa WSW 2.6 km/h 5.0 km/h 85 % 0.0 mm meteobridge W/m2
08:10 -1.7 °C -3.9 °C 1027.0 hPa Calm     85 % 0.0 mm meteobridge W/m2
08:16 -1.8 °C -4.0 °C 1027.0 hPa WNW 1.4 km/h 4.0 km/h 85 % 0.0 mm meteobridge W/m2
08:22 -1.7 °C -3.9 °C 1027.0 hPa West 4.3 km/h 4.3 km/h 85 % 0.0 mm meteobridge W/m2
08:28 -1.6 °C -3.8 °C 1027.0 hPa WSW 2.1 km/h 6.4 km/h 85 % 0.0 mm meteobridge W/m2
08:41 -1.8 °C -4.0 °C 1027.0 hPa Calm   4.7 km/h 85 % 0.0 mm meteobridge W/m2
08:47 -2.0 °C -4.2 °C 1027.0 hPa WSW 4.3 km/h 5.5 km/h 85 % 0.0 mm meteobridge W/m2
08:53 -2.0 °C -4.2 °C 1027.0 hPa WNW 3.2 km/h 3.2 km/h 85 % 0.0 mm meteobridge W/m2
08:59 -2.0 °C -4.0 °C 1027.0 hPa WSW 4.7 km/h 5.5 km/h 86 % 0.0 mm meteobridge W/m2
09:07 -1.7 °C -3.7 °C 1027.0 hPa South 3.5 km/h 4.7 km/h 86 % 0.0 mm meteobridge W/m2
09:13 -1.6 °C -3.8 °C 1027.0 hPa WSW 4.3 km/h 4.3 km/h 85 % 0.0 mm meteobridge W/m2
09:19 -1.4 °C -3.6 °C 1027.0 hPa WSW 4.0 km/h 5.8 km/h 85 % 0.0 mm meteobridge W/m2
09:25 -1.3 °C -3.5 °C 1027.0 hPa WSW 5.5 km/h 5.5 km/h 85 % 0.0 mm meteobridge W/m2
09:31 -1.2 °C -3.4 °C 1027.0 hPa WSW 3.5 km/h 9.7 km/h 85 % 0.0 mm meteobridge W/m2
09:37 -1.2 °C -3.4 °C 1027.0 hPa WSW 5.5 km/h 5.5 km/h 85 % 0.0 mm meteobridge W/m2
09:43 -1.2 °C -3.4 °C 1027.0 hPa WSW 5.8 km/h -1607.4 km/h 85 % 0.0 mm meteobridge W/m2
09:49 -1.1 °C -3.5 °C 1027.0 hPa WSW 9.7 km/h 9.7 km/h 84 % 0.0 mm meteobridge W/m2
10:01 -0.9 °C -3.3 °C 1027.0 hPa WSW 5.0 km/h 5.0 km/h 84 % 0.0 mm meteobridge W/m2
10:07 -0.8 °C -3.2 °C 1027.0 hPa West 5.8 km/h 8.7 km/h 84 % 0.0 mm meteobridge W/m2
10:19 -0.6 °C -3.0 °C 1027.0 hPa WNW 1.8 km/h 4.0 km/h 84 % 0.0 mm meteobridge W/m2
10:25 -0.6 °C -3.1 °C 1027.0 hPa WSW 2.1 km/h 6.9 km/h 83 % 0.0 mm meteobridge W/m2
10:31 -0.7 °C -3.2 °C 1027.0 hPa WNW 1.8 km/h 8.7 km/h 83 % 0.0 mm meteobridge W/m2
10:41 -0.7 °C -3.2 °C 1027.0 hPa WSW 6.4 km/h 6.4 km/h 83 % 0.0 mm meteobridge W/m2
10:49 -0.7 °C -3.2 °C 1027.0 hPa WSW 4.7 km/h 9.7 km/h 83 % 0.0 mm meteobridge W/m2
10:55 -0.4 °C -2.9 °C 1027.0 hPa WSW 6.4 km/h 8.7 km/h 83 % 0.0 mm meteobridge W/m2
11:01 -0.3 °C -2.8 °C 1027.0 hPa WSW 9.0 km/h 9.0 km/h 83 % 0.0 mm meteobridge W/m2
11:09 -0.3 °C -2.8 °C 1027.0 hPa WSW 4.7 km/h 8.7 km/h 83 % 0.0 mm meteobridge W/m2
11:15 -0.2 °C -2.9 °C 1027.0 hPa NNW 4.7 km/h 5.0 km/h 82 % 0.0 mm meteobridge W/m2
11:21 -0.1 °C -2.8 °C 1027.0 hPa WNW 9.0 km/h 9.0 km/h 82 % 0.0 mm meteobridge W/m2
11:27 -0.1 °C -2.8 °C 1027.0 hPa WSW 7.6 km/h 7.6 km/h 82 % 0.0 mm meteobridge W/m2
11:33 0.0 °C -2.7 °C 1027.0 hPa WSW 6.1 km/h 6.1 km/h 82 % 0.0 mm meteobridge W/m2
11:39 0.0 °C -2.7 °C 1027.0 hPa WSW 6.1 km/h 6.1 km/h 82 % 0.0 mm meteobridge W/m2
11:45 0.0 °C -2.7 °C 1027.0 hPa West 6.4 km/h 6.4 km/h 82 % 0.0 mm meteobridge W/m2
11:51 -0.1 °C -2.8 °C 1027.0 hPa West 4.3 km/h 4.3 km/h 82 % 0.0 mm meteobridge W/m2
11:57 0.0 °C -2.7 °C 1027.0 hPa West 6.1 km/h 6.1 km/h 82 % 0.0 mm meteobridge W/m2
12:03 0.2 °C -2.7 °C 1027.0 hPa West 4.3 km/h 12.6 km/h 81 % 0.0 mm meteobridge W/m2
12:15 0.4 °C -2.5 °C 1027.0 hPa WSW 6.1 km/h 6.1 km/h 81 % 0.0 mm meteobridge W/m2
12:21 0.4 °C -2.5 °C 1027.0 hPa WNW 5.8 km/h 5.8 km/h 81 % 0.0 mm meteobridge W/m2
12:27 0.6 °C -2.3 °C 1027.0 hPa Calm     81 % 0.0 mm meteobridge W/m2
12:39 0.5 °C -2.4 °C 1027.0 hPa WSW 8.7 km/h 8.7 km/h 81 % 0.0 mm meteobridge W/m2
12:47 0.4 °C -2.6 °C 1027.0 hPa WNW 5.5 km/h 5.8 km/h 80 % 0.0 mm meteobridge W/m2
12:53 0.6 °C -2.5 °C 1026.0 hPa Calm   1.4 km/h 80 % 0.0 mm meteobridge W/m2
12:59 0.5 °C -2.5 °C 1026.0 hPa WSW 1.8 km/h 1.8 km/h 80 % 0.0 mm meteobridge W/m2
13:05 0.5 °C -2.5 °C 1026.0 hPa WSW 3.2 km/h 3.2 km/h 80 % 0.0 mm meteobridge W/m2
13:11 0.6 °C -2.5 °C 1026.0 hPa WSW 5.5 km/h 5.5 km/h 80 % 0.0 mm meteobridge W/m2
13:17 0.4 °C -2.6 °C 1026.0 hPa WSW 5.0 km/h 5.5 km/h 80 % 0.0 mm meteobridge W/m2
13:23 0.3 °C -2.9 °C 1026.0 hPa WSW 4.0 km/h 4.0 km/h 79 % 0.0 mm meteobridge W/m2
13:29 0.3 °C -2.9 °C 1026.0 hPa SW 3.2 km/h 6.4 km/h 79 % 0.0 mm meteobridge W/m2
13:41 0.4 °C -2.8 °C 1026.0 hPa WSW 4.7 km/h 4.7 km/h 79 % 0.0 mm meteobridge W/m2
13:49 0.4 °C -2.8 °C 1026.0 hPa WSW 5.5 km/h 6.4 km/h 79 % 0.0 mm meteobridge W/m2
13:55 0.3 °C -2.9 °C 1026.0 hPa WSW 4.3 km/h 9.0 km/h 79 % 0.0 mm meteobridge W/m2
14:01 0.3 °C -2.9 °C 1026.0 hPa West 2.1 km/h 4.7 km/h 79 % 0.0 mm meteobridge W/m2
14:07 0.4 °C -2.8 °C 1026.0 hPa SSW 4.7 km/h 5.5 km/h 79 % 0.0 mm meteobridge W/m2
14:13 0.3 °C -2.9 °C 1026.0 hPa SSE 2.6 km/h 2.6 km/h 79 % 0.0 mm meteobridge W/m2
14:19 0.6 °C -2.5 °C 1026.0 hPa Calm     80 % 0.0 mm meteobridge W/m2
14:31 0.4 °C -2.8 °C 1026.0 hPa WSW 4.0 km/h 4.0 km/h 79 % 0.0 mm meteobridge W/m2
14:37 0.5 °C -2.5 °C 1026.0 hPa WSW 4.7 km/h 4.7 km/h 80 % 0.0 mm meteobridge W/m2
14:43 0.4 °C -2.8 °C 1026.0 hPa West 6.4 km/h 6.4 km/h 79 % 0.0 mm meteobridge W/m2
14:49 0.4 °C -2.8 °C 1024.9 hPa WSW 10.5 km/h 10.5 km/h 79 % 0.0 mm meteobridge W/m2
14:55 0.5 °C -2.7 °C 1024.9 hPa West 2.6 km/h 4.3 km/h 79 % 0.0 mm meteobridge W/m2
15:08 0.5 °C -2.7 °C 1024.9 hPa Calm   5.8 km/h 79 % 0.0 mm meteobridge W/m2
15:15 0.6 °C -2.5 °C 1024.9 hPa WSW 4.7 km/h 4.7 km/h 80 % 0.0 mm meteobridge W/m2
15:21 0.5 °C -2.7 °C 1024.9 hPa WSW 4.0 km/h 6.1 km/h 79 % 0.0 mm meteobridge W/m2
15:27 0.5 °C -2.7 °C 1024.9 hPa WSW 5.8 km/h 5.8 km/h 79 % 0.0 mm meteobridge W/m2
15:33 0.6 °C -2.5 °C 1024.9 hPa WSW 6.9 km/h 6.9 km/h 80 % 0.0 mm meteobridge W/m2
15:39 0.6 °C -2.5 °C 1024.9 hPa West 4.0 km/h 9.0 km/h 80 % 0.0 mm meteobridge W/m2
15:45 0.5 °C -2.5 °C 1024.9 hPa WSW 7.9 km/h 7.9 km/h 80 % 0.0 mm meteobridge W/m2
15:51 0.6 °C -2.5 °C 1024.9 hPa WSW 2.6 km/h 5.5 km/h 80 % 0.0 mm meteobridge W/m2
15:57 0.6 °C -2.5 °C 1024.9 hPa WSW 4.7 km/h 4.7 km/h 80 % 0.0 mm meteobridge W/m2
16:03 0.6 °C -2.5 °C 1024.9 hPa SW 1.8 km/h 1.8 km/h 80 % 0.0 mm meteobridge W/m2
16:09 0.6 °C -2.5 °C 1024.9 hPa WSW 1.4 km/h 2.1 km/h 80 % 0.0 mm meteobridge W/m2
16:19 0.6 °C -2.5 °C 1024.9 hPa West 2.6 km/h 2.6 km/h 80 % 0.0 mm meteobridge W/m2
16:25 0.6 °C -2.5 °C 1024.9 hPa WNW 5.5 km/h 5.5 km/h 80 % 0.0 mm meteobridge W/m2
16:31 0.6 °C -2.5 °C 1024.9 hPa WSW 4.3 km/h 4.3 km/h 80 % 0.0 mm meteobridge W/m2
16:37 0.7 °C -2.2 °C 1024.9 hPa WNW 8.7 km/h 8.7 km/h 81 % 0.0 mm meteobridge W/m2
16:43 0.7 °C -2.2 °C 1024.9 hPa West 5.8 km/h 5.8 km/h 81 % 0.0 mm meteobridge W/m2
16:49 0.8 °C -2.1 °C 1024.9 hPa Calm   4.3 km/h 81 % 0.0 mm meteobridge W/m2
16:55 0.7 °C -2.2 °C 1024.9 hPa Calm   3.2 km/h 81 % 0.0 mm meteobridge W/m2
17:01 0.8 °C -2.1 °C 1024.9 hPa WNW 11.6 km/h 11.6 km/h 81 % 0.0 mm meteobridge W/m2
17:07 0.8 °C -2.1 °C 1024.9 hPa WSW 1.8 km/h 1.8 km/h 81 % 0.0 mm meteobridge W/m2
17:13 0.9 °C -2.0 °C 1024.9 hPa WSW 4.3 km/h 6.4 km/h 81 % 0.0 mm meteobridge W/m2
17:19 0.9 °C -2.0 °C 1024.9 hPa WSW 1.4 km/h 3.2 km/h 81 % 0.0 mm meteobridge W/m2
17:25 1.0 °C -1.9 °C 1024.9 hPa WSW 5.5 km/h 5.5 km/h 81 % 0.0 mm meteobridge W/m2
17:31 1.0 °C -1.9 °C 1024.9 hPa WSW 4.0 km/h 4.0 km/h 81 % 0.0 mm meteobridge W/m2
17:49 1.2 °C -1.9 °C 1024.9 hPa WSW 6.1 km/h 6.1 km/h 80 % 0.0 mm meteobridge W/m2
17:55 1.2 °C -2.0 °C 1024.9 hPa WSW 2.1 km/h 4.7 km/h 79 % 0.0 mm meteobridge W/m2
18:01 1.2 °C -2.0 °C 1024.9 hPa WSW 4.7 km/h 9.0 km/h 79 % 0.0 mm meteobridge W/m2
18:07 1.3 °C -2.1 °C 1024.9 hPa WSW 2.6 km/h 2.6 km/h 78 % 0.0 mm meteobridge W/m2
18:13 1.2 °C -2.2 °C 1024.9 hPa WSW 5.0 km/h 5.0 km/h 78 % 0.0 mm meteobridge W/m2
18:19 1.3 °C -2.1 °C 1024.9 hPa WSW 8.7 km/h 8.7 km/h 78 % 0.0 mm meteobridge W/m2
18:25 1.3 °C -2.1 °C 1024.9 hPa WNW 4.3 km/h 4.3 km/h 78 % 0.0 mm meteobridge W/m2
18:31 1.2 °C -2.2 °C 1024.9 hPa West 5.0 km/h 5.8 km/h 78 % 0.0 mm meteobridge W/m2
18:39 1.2 °C -2.2 °C 1024.9 hPa West 3.2 km/h 3.2 km/h 78 % 0.0 mm meteobridge W/m2
18:45 1.2 °C -2.2 °C 1024.9 hPa West 1.4 km/h 8.7 km/h 78 % 0.0 mm meteobridge W/m2
18:51 1.2 °C -2.2 °C 1026.0 hPa WSW 1.4 km/h 4.0 km/h 78 % 0.0 mm meteobridge W/m2
19:09 1.1 °C -2.3 °C 1026.0 hPa WSW 5.8 km/h 5.8 km/h 78 % 0.0 mm meteobridge W/m2
19:15 1.0 °C -2.4 °C 1026.0 hPa WNW 4.0 km/h 9.3 km/h 78 % 0.0 mm meteobridge W/m2
19:21 1.0 °C -2.4 °C 1026.0 hPa WSW 6.4 km/h 6.4 km/h 78 % 0.0 mm meteobridge W/m2
19:27 1.0 °C -2.4 °C 1026.0 hPa WSW 4.3 km/h 6.9 km/h 78 % 0.0 mm meteobridge W/m2
19:33 1.0 °C -2.4 °C 1026.0 hPa WSW 7.9 km/h 7.9 km/h 78 % 0.0 mm meteobridge W/m2
19:45 1.0 °C -2.4 °C 1026.0 hPa WSW 5.8 km/h -1607.4 km/h 78 % 0.0 mm meteobridge W/m2
19:51 1.0 °C -2.4 °C 1026.0 hPa WSW 4.0 km/h 4.3 km/h 78 % 0.0 mm meteobridge W/m2
19:57 1.0 °C -2.4 °C 1026.0 hPa WSW 9.0 km/h 9.0 km/h 78 % 0.0 mm meteobridge W/m2
20:03 1.0 °C -2.4 °C 1026.0 hPa WSW 5.8 km/h 5.8 km/h 78 % 0.0 mm meteobridge W/m2
20:23 0.9 °C -2.3 °C 1026.0 hPa WSW 2.6 km/h 4.7 km/h 79 % 0.0 mm meteobridge W/m2
20:29 1.0 °C -2.2 °C 1026.0 hPa WSW 5.5 km/h 5.5 km/h 79 % 0.0 mm meteobridge W/m2
20:35 1.0 °C -2.2 °C 1026.0 hPa WSW 3.2 km/h 3.2 km/h 79 % 0.0 mm meteobridge W/m2
20:40 1.0 °C -2.2 °C 1026.0 hPa WSW 1.8 km/h 1.8 km/h 79 % 0.0 mm meteobridge W/m2
20:46 1.0 °C -2.2 °C 1026.0 hPa WSW 4.3 km/h -1607.4 km/h 79 % 0.0 mm meteobridge W/m2
20:53 1.1 °C -2.1 °C 1026.0 hPa WSW 1.8 km/h -1607.4 km/h 79 % 0.0 mm meteobridge W/m2
20:59 1.2 °C -2.2 °C 1026.0 hPa WSW 4.0 km/h 4.0 km/h 78 % 0.0 mm meteobridge W/m2
21:06 1.1 °C -2.3 °C 1026.0 hPa WSW 6.1 km/h 6.1 km/h 78 % 0.0 mm meteobridge W/m2
21:16 1.1 °C -2.3 °C 1026.0 hPa WSW 6.9 km/h 6.9 km/h 78 % 0.0 mm meteobridge W/m2
21:22 1.1 °C -2.3 °C 1026.0 hPa NW 2.6 km/h 2.6 km/h 78 % 0.0 mm meteobridge W/m2
21:29 1.1 °C -2.3 °C 1026.0 hPa West 4.3 km/h -1607.4 km/h 78 % 0.0 mm meteobridge W/m2
21:35 1.0 °C -2.6 °C 1026.0 hPa West 18.0 km/h 18.0 km/h 77 % 0.0 mm meteobridge W/m2
21:53 1.1 °C -2.8 °C 1026.0 hPa West 23.0 km/h -1607.4 km/h 75 % 0.0 mm meteobridge W/m2
21:59 1.1 °C -2.8 °C 1026.0 hPa WSW 16.3 km/h -1607.4 km/h 75 % 0.0 mm meteobridge W/m2
22:12 1.2 °C -2.9 °C 1026.0 hPa WSW 7.9 km/h 7.9 km/h 74 % 0.0 mm meteobridge W/m2
22:18 1.0 °C -3.1 °C 1026.0 hPa East 9.0 km/h 9.0 km/h 74 % 0.0 mm meteobridge W/m2
22:25 0.9 °C -3.2 °C 1026.0 hPa WSW 9.0 km/h 10.1 km/h 74 % 0.0 mm meteobridge W/m2
22:31 1.0 °C -3.1 °C 1026.0 hPa WSW 13.7 km/h 13.7 km/h 74 % 0.0 mm meteobridge W/m2
22:38 1.0 °C -3.1 °C 1026.0 hPa WSW 4.3 km/h 6.4 km/h 74 % 0.0 mm meteobridge W/m2
22:44 1.0 °C -3.3 °C 1026.0 hPa WSW 8.7 km/h 9.3 km/h 73 % 0.0 mm meteobridge W/m2
22:50 1.0 °C -3.3 °C 1026.0 hPa WSW 10.1 km/h 11.6 km/h 73 % 0.0 mm meteobridge W/m2
22:57 1.0 °C -3.1 °C 1026.0 hPa WSW 5.0 km/h 5.8 km/h 74 % 0.0 mm meteobridge W/m2
23:03 0.9 °C -3.2 °C 1026.0 hPa WSW 4.3 km/h 4.3 km/h 74 % 0.0 mm meteobridge W/m2
23:10 0.9 °C -3.2 °C 1026.0 hPa WNW 4.3 km/h 5.8 km/h 74 % 0.0 mm meteobridge W/m2
23:16 0.9 °C -3.2 °C 1026.0 hPa WSW 6.1 km/h 6.1 km/h 74 % 0.0 mm meteobridge W/m2
23:22 0.8 °C -3.3 °C 1026.0 hPa WSW 4.0 km/h 4.3 km/h 74 % 0.0 mm meteobridge W/m2
23:29 0.8 °C -3.3 °C 1026.0 hPa WSW 4.3 km/h 8.7 km/h 74 % 0.0 mm meteobridge W/m2
23:36 0.9 °C -3.2 °C 1026.0 hPa WSW 5.0 km/h 5.0 km/h 74 % 0.0 mm meteobridge W/m2
23:42 0.9 °C -3.2 °C 1026.0 hPa WSW 4.0 km/h 4.0 km/h 74 % 0.0 mm meteobridge W/m2
23:48 1.0 °C -3.1 °C 1026.0 hPa WNW 14.0 km/h 14.0 km/h 74 % 0.0 mm meteobridge W/m2
23:53 1.0 °C -3.1 °C 1026.0 hPa WSW 6.9 km/h 6.9 km/h 74 % 0.0 mm meteobridge W/m2
23:59 0.9 °C -3.2 °C 1026.0 hPa WSW 3.2 km/h 3.2 km/h 74 % 0.0 mm meteobridge W/m2
Juneau County Weather
Compliments of Weather Underground - 2.25 mb